createdAt,value
2022-10-06T00:01:32.936Z,11.70
2022-10-06T00:06:58.253Z,11.50
2022-10-06T00:12:01.710Z,11.30
2022-10-06T00:17:06.971Z,11.20
2022-10-06T00:22:19.381Z,11.10
2022-10-06T00:27:44.093Z,11.00
2022-10-06T00:33:01.700Z,10.90
2022-10-06T00:38:23.425Z,10.80
2022-10-06T00:43:49.187Z,10.80
2022-10-06T00:49:03.048Z,10.70
2022-10-06T00:54:25.971Z,10.60
2022-10-06T00:59:41.154Z,10.50
2022-10-06T01:05:22.589Z,10.50
2022-10-06T01:10:33.405Z,10.40
2022-10-06T01:21:20.808Z,10.30
2022-10-06T01:26:56.163Z,10.20
2022-10-06T01:32:16.590Z,10.20
2022-10-06T01:37:26.538Z,10.10
2022-10-06T01:42:41.085Z,10.10
2022-10-06T01:47:50.502Z,10.00
2022-10-06T01:52:59.906Z,9.90
2022-10-06T01:58:05.929Z,9.90
2022-10-06T02:03:26.867Z,9.90
2022-10-06T02:08:32.568Z,9.80
2022-10-06T02:13:41.452Z,9.80
2022-10-06T02:18:47.955Z,9.80
2022-10-06T02:23:51.867Z,9.70
2022-10-06T02:28:56.733Z,9.70
2022-10-06T02:34:09.388Z,9.70
2022-10-06T02:39:22.429Z,9.60
2022-10-06T02:44:28.419Z,9.40
2022-10-06T02:49:32.354Z,9.30
2022-10-06T02:54:42.253Z,9.30
2022-10-06T02:59:49.873Z,9.20
2022-10-06T03:05:02.413Z,9.10
2022-10-06T03:10:12.582Z,9.00
2022-10-06T03:15:16.619Z,9.10
2022-10-06T03:20:20.310Z,9.00
2022-10-06T03:25:41.512Z,8.90
2022-10-06T03:31:23.843Z,8.80
2022-10-06T03:36:37.916Z,8.70
2022-10-06T03:41:41.355Z,8.60
2022-10-06T03:46:49.200Z,8.60
2022-10-06T03:51:54.579Z,8.50
2022-10-06T03:57:03.683Z,8.40
2022-10-06T04:02:08.817Z,8.40
2022-10-06T04:07:13.107Z,8.30
2022-10-06T04:12:19.679Z,8.30
2022-10-06T04:17:39.891Z,8.20
2022-10-06T04:22:45.626Z,8.20
2022-10-06T04:27:50.647Z,8.20
2022-10-06T04:32:56.336Z,8.10
2022-10-06T04:37:58.898Z,8.10
2022-10-06T04:43:04.641Z,8.00
2022-10-06T04:48:10.583Z,8.00
2022-10-06T04:53:22.439Z,8.00
2022-10-06T04:59:02.276Z,8.00
2022-10-06T05:04:11.339Z,7.90
2022-10-06T05:09:41.849Z,7.90
2022-10-06T05:14:52.607Z,7.80
2022-10-06T05:20:05.130Z,7.80
2022-10-06T05:25:13.002Z,7.80
2022-10-06T05:30:18.557Z,7.70
2022-10-06T05:35:42.290Z,7.70
2022-10-06T05:40:52.381Z,7.70
2022-10-06T05:46:19.349Z,7.70
2022-10-06T05:57:04.188Z,7.60
2022-10-06T06:02:18.192Z,7.60
2022-10-06T06:07:45.360Z,7.60
2022-10-06T06:13:24.639Z,7.60
2022-10-06T06:18:36.656Z,7.60
2022-10-06T06:23:51.308Z,7.60
2022-10-06T06:29:15.508Z,7.60
2022-10-06T06:34:23.927Z,7.60
2022-10-06T06:39:27.812Z,7.60
2022-10-06T06:44:30.972Z,7.60
2022-10-06T06:49:44.397Z,7.60
2022-10-06T06:54:49.987Z,7.70
2022-10-06T06:59:56.075Z,7.70
2022-10-06T07:05:02.006Z,7.80
2022-10-06T07:10:09.201Z,7.90
2022-10-06T07:15:35.030Z,7.90
2022-10-06T07:20:56.277Z,8.00
2022-10-06T07:26:00.653Z,8.10
2022-10-06T07:31:08.026Z,8.20
2022-10-06T07:41:31.533Z,8.50
2022-10-06T07:46:53.640Z,8.70
2022-10-06T07:52:08.503Z,8.80
2022-10-06T07:57:12.079Z,9.00
2022-10-06T08:02:34.686Z,9.20
2022-10-06T08:07:46.026Z,9.40
2022-10-06T08:24:13.248Z,10.10
2022-10-06T08:29:18.445Z,10.40
2022-10-06T08:34:21.930Z,10.70
2022-10-06T08:39:24.606Z,11.10
2022-10-06T08:44:35.643Z,11.50
2022-10-06T08:49:45.956Z,11.90
2022-10-06T08:55:06.861Z,12.20
2022-10-06T09:00:18.002Z,12.70
2022-10-06T09:05:29.953Z,13.20
2022-10-06T09:10:43.087Z,13.80
2022-10-06T09:15:57.390Z,14.40
2022-10-06T09:21:03.602Z,14.90
2022-10-06T09:32:39.303Z,15.70
2022-10-06T09:37:59.036Z,16.00
2022-10-06T09:43:17.158Z,16.10
2022-10-06T09:48:33.246Z,16.10
2022-10-06T09:59:49.135Z,16.40
2022-10-06T10:16:14.575Z,17.30
2022-10-06T10:21:50.877Z,17.50
2022-10-06T10:27:46.951Z,17.80
2022-10-06T10:45:45.143Z,18.30
2022-10-06T10:52:09.922Z,18.50
2022-10-06T11:03:05.054Z,19.10
2022-10-06T11:14:38.199Z,18.60
2022-10-06T11:20:11.794Z,19.10
2022-10-06T11:25:53.336Z,19.80
2022-10-06T11:31:58.358Z,19.90
2022-10-06T11:43:42.853Z,19.70
2022-10-06T11:48:59.131Z,20.00
2022-10-06T11:54:28.800Z,20.40
2022-10-06T12:00:10.239Z,20.70
2022-10-06T12:12:07.549Z,20.70
2022-10-06T12:18:13.514Z,20.00
2022-10-06T12:24:10.817Z,20.10
2022-10-06T12:29:50.435Z,19.70
2022-10-06T12:35:27.072Z,19.50
2022-10-06T12:41:00.101Z,19.10
2022-10-06T12:46:50.726Z,19.00
2022-10-06T12:52:06.423Z,18.90
2022-10-06T12:57:31.705Z,18.80
2022-10-06T13:02:41.274Z,18.80
2022-10-06T13:08:03.024Z,19.00
2022-10-06T13:13:25.412Z,19.40
2022-10-06T13:18:34.534Z,19.20
2022-10-06T13:23:49.247Z,19.00
2022-10-06T13:28:54.638Z,18.60
2022-10-06T13:34:03.492Z,18.70
2022-10-06T13:39:27.582Z,18.50
2022-10-06T13:44:38.647Z,18.40
2022-10-06T13:49:58.596Z,18.40
2022-10-06T13:55:25.673Z,18.60
2022-10-06T14:00:55.750Z,19.10
2022-10-06T14:06:23.172Z,19.40
2022-10-06T14:16:55.792Z,19.60
2022-10-06T14:22:05.848Z,19.70
2022-10-06T14:27:13.120Z,19.80
2022-10-06T14:32:23.938Z,19.80
2022-10-06T14:37:28.921Z,19.90
2022-10-06T14:42:34.704Z,19.60
2022-10-06T14:47:53.739Z,19.30
2022-10-06T14:59:03.489Z,19.00
2022-10-06T15:04:31.522Z,18.90
2022-10-06T15:09:39.138Z,19.30
2022-10-06T15:15:08.142Z,19.60
2022-10-06T15:20:22.725Z,19.70
2022-10-06T15:25:44.586Z,19.70
2022-10-06T15:30:48.972Z,19.60
2022-10-06T15:36:17.109Z,19.50
2022-10-06T15:41:20.394Z,19.20
2022-10-06T15:46:41.063Z,18.70
2022-10-06T15:51:47.800Z,18.50
2022-10-06T15:56:52.618Z,18.70
2022-10-06T16:02:01.579Z,18.80
2022-10-06T16:07:07.879Z,19.00
2022-10-06T16:12:12.529Z,18.80
2022-10-06T16:17:15.522Z,18.60
2022-10-06T16:22:19.392Z,18.40
2022-10-06T16:27:21.690Z,18.20
2022-10-06T16:32:23.976Z,18.10
2022-10-06T16:37:26.310Z,18.00
2022-10-06T16:42:29.028Z,18.00
2022-10-06T16:47:34.872Z,17.90
2022-10-06T16:52:45.028Z,17.80
2022-10-06T16:57:49.754Z,18.20
2022-10-06T17:02:54.646Z,18.40
2022-10-06T17:08:00.444Z,18.50
2022-10-06T17:13:06.634Z,18.40
2022-10-06T17:18:09.669Z,18.00
2022-10-06T17:23:21.247Z,17.70
2022-10-06T17:29:18.259Z,17.10
2022-10-06T17:34:23.646Z,16.60
2022-10-06T17:39:33.272Z,16.40
2022-10-06T17:44:38.414Z,16.10
2022-10-06T17:50:21.040Z,15.90
2022-10-06T17:56:11.707Z,15.70
2022-10-06T18:08:08.512Z,15.30
2022-10-06T18:14:27.176Z,15.10
2022-10-06T18:31:36.996Z,14.60
2022-10-06T18:37:29.931Z,14.50
2022-10-06T18:42:46.852Z,14.30
2022-10-06T18:59:32.852Z,13.90
2022-10-06T19:04:53.448Z,13.80
2022-10-06T19:22:43.614Z,13.40
2022-10-06T19:27:45.990Z,13.40
2022-10-06T19:32:50.290Z,13.20
2022-10-06T19:37:52.565Z,13.10
2022-10-06T19:42:55.062Z,13.00
2022-10-06T19:47:58.177Z,12.90
2022-10-06T19:53:01.879Z,12.80
2022-10-06T19:58:04.020Z,12.80
2022-10-06T20:03:09.719Z,12.70
2022-10-06T20:08:12.054Z,12.60
2022-10-06T20:13:15.288Z,12.40
2022-10-06T20:18:17.742Z,12.40
2022-10-06T20:23:20.038Z,12.30
2022-10-06T20:28:22.422Z,12.20
2022-10-06T20:33:24.794Z,12.10
2022-10-06T20:38:47.269Z,12.00
2022-10-06T20:43:50.143Z,11.90
2022-10-06T20:48:52.373Z,11.90
2022-10-06T20:53:54.578Z,11.80
2022-10-06T20:58:57.694Z,11.80
2022-10-06T21:04:00.389Z,11.70
2022-10-06T21:09:02.878Z,11.60
2022-10-06T21:14:10.430Z,11.50
2022-10-06T21:19:17.700Z,11.50
2022-10-06T21:24:20.691Z,11.40
2022-10-06T21:29:22.966Z,11.30
2022-10-06T21:34:25.167Z,11.20
2022-10-06T21:39:27.451Z,11.10
2022-10-06T21:44:29.729Z,11.10
2022-10-06T21:49:31.997Z,11.00
2022-10-06T21:54:34.577Z,11.00
2022-10-06T21:59:36.878Z,10.90
2022-10-06T22:04:39.183Z,10.80
2022-10-06T22:09:41.433Z,10.80
2022-10-06T22:14:43.660Z,10.70
2022-10-06T22:19:45.949Z,10.70
2022-10-06T22:24:48.587Z,10.60
2022-10-06T22:29:50.951Z,10.50
2022-10-06T22:34:53.967Z,10.50
2022-10-06T22:39:56.333Z,10.40
2022-10-06T22:44:58.626Z,10.30
2022-10-06T22:50:00.838Z,10.30
2022-10-06T22:55:03.112Z,10.20
2022-10-06T23:00:05.758Z,10.20
2022-10-06T23:05:08.416Z,10.10
2022-10-06T23:10:11.843Z,10.10
2022-10-06T23:15:18.925Z,10.00
2022-10-06T23:26:15.106Z,9.90
2022-10-06T23:31:21.358Z,9.80
2022-10-06T23:36:43.038Z,9.80
2022-10-06T23:41:48.739Z,9.70
2022-10-06T23:46:59.396Z,9.80
2022-10-06T23:52:06.769Z,9.70
2022-10-06T23:57:28.709Z,9.60
